createdAt,value
2019-03-15T00:01:46.091Z,6.17
2019-03-15T00:04:14.652Z,6.15
2019-03-15T00:06:43.253Z,6.16
2019-03-15T00:09:11.805Z,6.18
2019-03-15T00:11:40.661Z,6.14
2019-03-15T00:14:09.119Z,6.11
2019-03-15T00:16:37.633Z,6.06
2019-03-15T00:19:06.309Z,6.01
2019-03-15T00:21:34.825Z,6.03
2019-03-15T00:24:03.317Z,5.97
2019-03-15T00:26:31.848Z,5.92
2019-03-15T00:29:00.639Z,5.92
2019-03-15T00:31:31.018Z,6.01
2019-03-15T00:33:59.484Z,6.04
2019-03-15T00:36:28.006Z,6.00
2019-03-15T00:38:56.471Z,5.96
2019-03-15T00:41:25.246Z,5.95
2019-03-15T00:43:53.732Z,6.00
2019-03-15T00:46:22.590Z,5.98
2019-03-15T00:48:51.049Z,5.97
2019-03-15T00:51:19.527Z,5.96
2019-03-15T00:53:47.955Z,6.04
2019-03-15T00:56:16.448Z,6.06
2019-03-15T00:58:44.958Z,6.13
2019-03-15T01:01:13.766Z,6.15
2019-03-15T01:03:42.201Z,6.10
2019-03-15T01:06:10.753Z,6.03
2019-03-15T01:08:39.248Z,6.08
2019-03-15T01:11:07.809Z,6.18
2019-03-15T01:13:37.057Z,6.13
2019-03-15T01:16:05.650Z,6.20
2019-03-15T01:18:34.366Z,6.12
2019-03-15T01:21:02.886Z,6.10
2019-03-15T01:23:31.413Z,6.16
2019-03-15T01:25:59.897Z,6.14
2019-03-15T01:28:28.349Z,6.15
2019-03-15T01:30:56.920Z,6.15
2019-03-15T01:33:25.466Z,6.15
2019-03-15T01:35:53.895Z,6.15
2019-03-15T01:38:22.360Z,6.19
2019-03-15T01:40:50.923Z,6.16
2019-03-15T01:43:19.380Z,6.16
2019-03-15T01:45:48.203Z,6.13
2019-03-15T01:48:17.007Z,6.15
2019-03-15T01:50:45.637Z,6.15
2019-03-15T01:53:14.113Z,6.18
2019-03-15T01:55:42.476Z,6.22
2019-03-15T01:58:10.933Z,6.23
2019-03-15T02:00:39.929Z,6.18
2019-03-15T02:03:09.899Z,6.17
2019-03-15T02:05:39.587Z,6.20
2019-03-15T02:08:08.073Z,6.16
2019-03-15T02:10:37.498Z,6.21
2019-03-15T02:13:06.190Z,6.21
2019-03-15T02:15:34.773Z,6.19
2019-03-15T02:18:03.193Z,6.13
2019-03-15T02:20:31.820Z,6.20
2019-03-15T02:23:00.244Z,6.18
2019-03-15T02:25:29.056Z,6.17
2019-03-15T02:27:57.492Z,6.16
2019-03-15T02:30:25.945Z,6.14
2019-03-15T02:32:54.395Z,6.23
2019-03-15T02:35:22.940Z,6.17
2019-03-15T02:37:51.436Z,6.17
2019-03-15T02:40:19.846Z,6.12
2019-03-15T02:42:48.366Z,6.18
2019-03-15T02:45:16.900Z,6.23
2019-03-15T02:47:46.463Z,6.18
2019-03-15T02:50:15.601Z,6.19
2019-03-15T02:52:44.173Z,6.19
2019-03-15T02:55:12.619Z,6.18
2019-03-15T02:57:41.476Z,6.24
2019-03-15T03:00:10.577Z,6.23
2019-03-15T03:02:39.018Z,6.20
2019-03-15T03:05:09.784Z,6.27
2019-03-15T03:07:38.321Z,6.27
2019-03-15T03:10:08.401Z,6.32
2019-03-15T03:12:36.925Z,6.34
2019-03-15T03:15:06.681Z,6.34
2019-03-15T03:17:35.618Z,6.50
2019-03-15T03:20:05.685Z,6.44
2019-03-15T03:22:34.217Z,6.47
2019-03-15T03:25:02.918Z,6.48
2019-03-15T03:27:31.377Z,6.46
2019-03-15T03:29:59.899Z,6.38
2019-03-15T03:32:28.434Z,6.42
2019-03-15T03:34:56.902Z,6.42
2019-03-15T03:37:25.410Z,6.40
2019-03-15T03:39:53.938Z,6.41
2019-03-15T03:42:22.527Z,6.31
2019-03-15T03:44:51.078Z,6.23
2019-03-15T03:47:19.429Z,6.19
2019-03-15T03:49:47.861Z,6.16
2019-03-15T03:52:16.367Z,6.16
2019-03-15T03:54:44.819Z,6.19
2019-03-15T03:57:13.608Z,6.16
2019-03-15T03:59:42.118Z,6.12
2019-03-15T04:02:10.609Z,6.12
2019-03-15T04:04:39.154Z,6.13
2019-03-15T04:07:07.732Z,6.15
2019-03-15T04:09:36.272Z,6.14
2019-03-15T04:12:04.780Z,6.08
2019-03-15T04:14:33.341Z,6.10
2019-03-15T04:17:01.802Z,6.14
2019-03-15T04:19:30.530Z,6.13
2019-03-15T04:21:59.399Z,6.19
2019-03-15T04:24:27.898Z,6.20
2019-03-15T04:26:56.369Z,6.18
2019-03-15T04:29:24.898Z,6.26
2019-03-15T04:31:53.694Z,6.26
2019-03-15T04:34:22.144Z,6.20
2019-03-15T04:36:50.649Z,6.24
2019-03-15T04:39:19.160Z,6.35
2019-03-15T04:41:47.619Z,6.26
2019-03-15T04:44:16.161Z,6.22
2019-03-15T04:46:44.661Z,6.26
2019-03-15T04:49:13.410Z,6.27
2019-03-15T04:51:41.912Z,6.22
2019-03-15T04:54:10.397Z,6.26
2019-03-15T04:56:38.840Z,6.18
2019-03-15T04:59:07.338Z,6.14
2019-03-15T05:01:35.742Z,6.16
2019-03-15T05:04:04.500Z,6.19
2019-03-15T05:06:32.968Z,6.16
2019-03-15T05:09:01.491Z,6.18
2019-03-15T05:11:30.106Z,6.14
2019-03-15T05:13:59.230Z,6.21
2019-03-15T05:16:27.710Z,6.11
2019-03-15T05:18:56.267Z,6.18
2019-03-15T05:21:24.746Z,6.10
2019-03-15T05:23:53.531Z,6.16
2019-03-15T05:26:22.041Z,6.20
2019-03-15T05:28:50.622Z,6.18
2019-03-15T05:31:19.137Z,6.25
2019-03-15T05:33:47.947Z,6.24
2019-03-15T05:36:16.349Z,6.26
2019-03-15T05:38:44.915Z,6.30
2019-03-15T05:41:13.508Z,6.30
2019-03-15T05:43:42.021Z,6.29
2019-03-15T05:46:10.536Z,6.24
2019-03-15T05:48:39.016Z,6.22
2019-03-15T05:51:07.470Z,6.23
2019-03-15T05:53:36.017Z,6.32
2019-03-15T05:56:04.542Z,6.29
2019-03-15T05:58:33.017Z,6.26
2019-03-15T06:01:01.507Z,6.30
2019-03-15T06:03:29.990Z,6.43
2019-03-15T06:05:58.545Z,6.42
2019-03-15T06:08:27.713Z,6.39
2019-03-15T06:10:56.423Z,6.38
2019-03-15T06:13:24.850Z,6.40
2019-03-15T06:15:53.696Z,6.43
2019-03-15T06:18:22.216Z,6.31
2019-03-15T06:20:50.779Z,6.27
2019-03-15T06:23:19.601Z,6.32
2019-03-15T06:25:48.191Z,6.27
2019-03-15T06:28:16.753Z,6.33
2019-03-15T06:30:45.252Z,6.31
2019-03-15T06:33:13.902Z,6.28
2019-03-15T06:35:42.695Z,6.37
2019-03-15T06:38:11.459Z,6.58
2019-03-15T06:40:40.020Z,6.65
2019-03-15T06:43:08.577Z,6.67
2019-03-15T06:45:37.104Z,6.91
2019-03-15T06:48:05.742Z,7.04
2019-03-15T06:50:34.284Z,6.88
2019-03-15T06:53:02.937Z,6.89
2019-03-15T06:55:31.481Z,6.90
2019-03-15T06:57:59.972Z,6.77
2019-03-15T07:00:28.932Z,6.68
2019-03-15T07:02:57.431Z,6.71
2019-03-15T07:05:26.208Z,6.71
2019-03-15T07:07:54.689Z,6.78
2019-03-15T07:10:23.180Z,6.80
2019-03-15T07:12:51.759Z,6.81
2019-03-15T07:15:20.216Z,6.96
2019-03-15T07:17:48.731Z,6.89
2019-03-15T07:20:17.775Z,6.95
2019-03-15T07:22:46.200Z,7.08
2019-03-15T07:25:14.728Z,7.00
2019-03-15T07:27:43.317Z,7.19
2019-03-15T07:30:16.744Z,7.28
2019-03-15T07:32:45.332Z,7.26
2019-03-15T07:35:14.291Z,7.23
2019-03-15T07:37:45.278Z,7.39
2019-03-15T07:40:13.548Z,7.59
2019-03-15T07:42:42.040Z,7.34
2019-03-15T07:45:12.254Z,7.42
2019-03-15T07:47:40.868Z,7.58
2019-03-15T07:50:14.426Z,7.70
2019-03-15T07:52:43.157Z,7.89
2019-03-15T07:55:11.894Z,7.87
2019-03-15T07:57:40.689Z,7.86
2019-03-15T08:00:12.147Z,7.70
2019-03-15T08:02:40.930Z,7.70
2019-03-15T08:05:09.787Z,7.99
2019-03-15T08:07:44.733Z,8.01
2019-03-15T08:10:12.143Z,8.09
2019-03-15T08:12:40.561Z,8.33
2019-03-15T08:15:10.581Z,8.01
2019-03-15T08:17:39.120Z,8.04
2019-03-15T08:20:10.704Z,7.95
2019-03-15T08:22:39.318Z,8.10
2019-03-15T08:25:09.454Z,8.22
2019-03-15T08:27:38.006Z,8.35
2019-03-15T08:30:17.170Z,8.23
2019-03-15T08:32:45.816Z,7.97
2019-03-15T08:35:14.453Z,7.85
2019-03-15T08:37:42.975Z,7.80
2019-03-15T08:40:12.739Z,7.93
2019-03-15T08:42:41.250Z,8.17
2019-03-15T08:45:14.524Z,8.35
2019-03-15T08:47:43.012Z,8.35
2019-03-15T08:50:15.473Z,8.51
2019-03-15T08:52:44.440Z,8.63
2019-03-15T08:55:13.981Z,8.47
2019-03-15T08:57:42.476Z,8.16
2019-03-15T09:00:16.199Z,8.29
2019-03-15T09:02:44.701Z,8.53
2019-03-15T09:05:15.083Z,8.50
2019-03-15T09:07:43.652Z,8.42
2019-03-15T09:10:22.762Z,8.39
2019-03-15T09:12:43.236Z,8.50
2019-03-15T09:15:12.673Z,8.55
2019-03-15T09:17:41.181Z,8.35
2019-03-15T09:20:14.309Z,8.35
2019-03-15T09:22:43.145Z,8.64
2019-03-15T09:25:19.803Z,8.98
2019-03-15T09:27:46.558Z,9.60
2019-03-15T09:30:24.768Z,9.91
2019-03-15T09:32:47.165Z,9.78
2019-03-15T09:35:16.019Z,9.77
2019-03-15T09:37:47.237Z,9.72
2019-03-15T09:40:17.994Z,9.56
2019-03-15T09:42:46.533Z,9.35
2019-03-15T09:45:17.679Z,9.49
2019-03-15T09:47:46.435Z,9.57
2019-03-15T09:50:26.629Z,9.79
2019-03-15T09:52:45.895Z,9.65
2019-03-15T09:55:14.670Z,9.76
2019-03-15T09:57:43.169Z,9.42
2019-03-15T10:00:17.485Z,9.51
2019-03-15T10:02:45.960Z,9.20
2019-03-15T10:05:14.487Z,9.31
2019-03-15T10:07:43.951Z,9.34
2019-03-15T10:10:21.169Z,9.32
2019-03-15T10:13:04.691Z,9.69
2019-03-15T10:15:21.328Z,10.15
2019-03-15T10:17:49.835Z,10.40
2019-03-15T10:20:18.333Z,10.34
2019-03-15T10:23:04.065Z,10.62
2019-03-15T10:25:17.490Z,10.44
2019-03-15T10:27:46.022Z,10.43
2019-03-15T10:30:19.179Z,10.34
2019-03-15T10:32:47.761Z,10.34
2019-03-15T10:35:16.308Z,10.18
2019-03-15T10:37:44.927Z,9.99
2019-03-15T10:40:21.109Z,9.65
2019-03-15T10:42:49.666Z,9.75
2019-03-15T10:45:18.121Z,9.66
2019-03-15T10:47:46.630Z,9.58
2019-03-15T10:50:19.372Z,9.40
2019-03-15T10:52:53.677Z,9.45
2019-03-15T10:55:23.253Z,9.66
2019-03-15T10:57:51.998Z,9.54
2019-03-15T11:00:21.199Z,9.46
2019-03-15T11:02:55.088Z,9.47
2019-03-15T11:05:27.671Z,9.48
2019-03-15T11:08:02.463Z,9.43
2019-03-15T11:10:31.174Z,9.56
2019-03-15T11:13:00.663Z,9.71
2019-03-15T11:15:36.128Z,9.80
2019-03-15T11:18:10.719Z,9.91
2019-03-15T11:20:44.200Z,9.74
2019-03-15T11:23:30.873Z,9.95
2019-03-15T11:26:15.658Z,10.43
2019-03-15T11:28:36.495Z,10.47
2019-03-15T11:31:05.406Z,10.53
2019-03-15T11:33:47.075Z,10.47
2019-03-15T11:36:16.141Z,10.57
2019-03-15T11:38:46.409Z,10.66
2019-03-15T11:41:31.041Z,11.00
2019-03-15T11:44:00.266Z,11.03
2019-03-15T11:46:32.530Z,10.86
2019-03-15T11:49:07.667Z,10.67
2019-03-15T11:51:36.745Z,10.50
2019-03-15T11:54:10.129Z,10.92
2019-03-15T11:56:38.691Z,11.21
2019-03-15T11:59:07.255Z,11.12
2019-03-15T12:01:37.755Z,11.04
2019-03-15T12:04:06.478Z,10.74
2019-03-15T12:06:35.018Z,10.74
2019-03-15T12:09:03.952Z,10.46
2019-03-15T12:11:32.436Z,10.46
2019-03-15T12:14:00.995Z,10.20
2019-03-15T12:16:29.730Z,10.29
2019-03-15T12:18:58.540Z,10.21
2019-03-15T12:21:27.179Z,10.19
2019-03-15T12:23:55.812Z,10.23
2019-03-15T12:26:39.733Z,10.15
2019-03-15T12:28:58.407Z,9.97
2019-03-15T12:31:27.095Z,9.90
2019-03-15T12:33:55.733Z,9.84
2019-03-15T12:36:24.351Z,9.79
2019-03-15T12:38:52.735Z,9.64
2019-03-15T12:41:24.571Z,9.51
2019-03-15T12:43:51.695Z,9.40
2019-03-15T12:46:20.427Z,9.30
2019-03-15T12:48:49.007Z,9.22
2019-03-15T12:51:31.314Z,9.20
2019-03-15T12:53:47.731Z,9.26
2019-03-15T12:56:16.255Z,9.59
2019-03-15T12:58:44.815Z,9.58
2019-03-15T13:01:13.281Z,9.60
2019-03-15T13:03:41.859Z,9.65
2019-03-15T13:06:10.364Z,9.73
2019-03-15T13:08:38.832Z,9.76
2019-03-15T13:11:07.403Z,9.64
2019-03-15T13:13:35.942Z,9.55
2019-03-15T13:16:04.463Z,9.39
2019-03-15T13:18:33.030Z,9.43
2019-03-15T13:21:01.542Z,9.38
2019-03-15T13:23:29.986Z,9.38
2019-03-15T13:25:58.664Z,9.35
2019-03-15T13:28:28.765Z,9.37
2019-03-15T13:30:58.233Z,9.32
2019-03-15T13:33:33.008Z,9.23
2019-03-15T13:36:01.992Z,9.14
2019-03-15T13:38:30.523Z,9.02
2019-03-15T13:40:59.134Z,8.89
2019-03-15T13:43:27.915Z,8.90
2019-03-15T13:45:56.937Z,8.84
2019-03-15T13:48:25.530Z,8.86
2019-03-15T13:50:54.719Z,8.91
2019-03-15T13:53:23.378Z,8.89
2019-03-15T13:55:52.104Z,8.95
2019-03-15T13:58:20.763Z,8.82
2019-03-15T14:00:49.383Z,8.80
2019-03-15T14:03:18.161Z,8.49
2019-03-15T14:08:55.600Z,8.18
2019-03-15T14:11:24.992Z,8.12
2019-03-15T14:13:53.529Z,8.14
2019-03-15T14:16:22.465Z,8.17
2019-03-15T14:18:51.146Z,8.19
2019-03-15T14:21:19.763Z,8.17
2019-03-15T14:23:48.343Z,8.07
2019-03-15T14:26:16.829Z,8.10
2019-03-15T14:28:45.349Z,8.09
2019-03-15T14:31:13.966Z,8.01
2019-03-15T14:33:42.399Z,7.85
2019-03-15T14:36:10.889Z,7.84
2019-03-15T14:38:39.930Z,7.87
2019-03-15T14:41:08.865Z,7.82
2019-03-15T14:43:37.723Z,7.77
2019-03-15T14:46:06.570Z,7.83
2019-03-15T14:48:35.165Z,7.76
2019-03-15T14:51:03.710Z,7.80
2019-03-15T14:53:32.458Z,7.83
2019-03-15T14:56:01.018Z,7.76
2019-03-15T14:58:31.203Z,7.79
2019-03-15T15:00:59.981Z,7.76
2019-03-15T15:03:28.509Z,7.75
2019-03-15T15:05:57.056Z,7.70
2019-03-15T15:08:25.891Z,7.73
2019-03-15T15:10:54.459Z,7.75
2019-03-15T15:13:23.132Z,7.75
2019-03-15T15:15:51.930Z,7.74
2019-03-15T15:18:20.421Z,7.78
2019-03-15T15:20:48.921Z,7.87
2019-03-15T15:23:17.636Z,7.83
2019-03-15T15:25:46.232Z,7.85
2019-03-15T15:28:15.155Z,7.89
2019-03-15T15:30:43.901Z,7.91
2019-03-15T15:33:12.432Z,7.94
2019-03-15T15:35:41.714Z,7.99
2019-03-15T15:38:13.339Z,8.01
2019-03-15T15:40:42.263Z,8.10
2019-03-15T15:43:10.896Z,8.09
2019-03-15T15:45:39.435Z,8.18
2019-03-15T15:48:07.912Z,8.22
2019-03-15T15:50:36.462Z,8.15
2019-03-15T15:53:11.364Z,8.20
2019-03-15T15:55:39.566Z,8.22
2019-03-15T15:58:17.849Z,8.22
2019-03-15T16:00:41.301Z,8.24
2019-03-15T16:03:11.666Z,8.26
2019-03-15T16:05:40.294Z,8.35
2019-03-15T16:08:09.047Z,8.40
2019-03-15T16:10:42.588Z,8.43
2019-03-15T16:13:17.282Z,8.50
2019-03-15T16:15:45.383Z,8.60
2019-03-15T16:18:14.054Z,8.62
2019-03-15T16:20:44.305Z,8.66
2019-03-15T16:23:12.975Z,8.73
2019-03-15T16:25:41.587Z,8.78
2019-03-15T16:28:30.523Z,8.85
2019-03-15T16:30:47.448Z,8.89
2019-03-15T16:33:18.059Z,8.88
2019-03-15T16:35:46.542Z,8.94
2019-03-15T16:38:15.538Z,8.98
2019-03-15T16:40:44.263Z,9.01
2019-03-15T16:43:12.801Z,8.98
2019-03-15T16:45:41.437Z,9.01
2019-03-15T16:48:10.018Z,9.02
2019-03-15T16:50:39.351Z,9.00
2019-03-15T16:53:08.833Z,9.03
2019-03-15T16:55:38.612Z,9.03
2019-03-15T16:58:07.210Z,9.02
2019-03-15T17:00:42.386Z,9.01
2019-03-15T17:03:10.925Z,9.10
2019-03-15T17:05:39.514Z,9.07
2019-03-15T17:08:08.437Z,9.05
2019-03-15T17:10:37.179Z,9.01
2019-03-15T17:13:05.676Z,8.92
2019-03-15T17:15:34.499Z,8.93
2019-03-15T17:18:03.194Z,8.90
2019-03-15T17:20:31.701Z,8.91
2019-03-15T17:23:00.327Z,8.86
2019-03-15T17:25:28.868Z,8.87
2019-03-15T17:27:57.481Z,8.88
2019-03-15T17:30:26.305Z,8.88
2019-03-15T17:32:54.824Z,8.94
2019-03-15T17:35:23.396Z,8.96
2019-03-15T17:37:52.182Z,9.00
2019-03-15T17:40:21.223Z,9.05
2019-03-15T17:42:49.752Z,9.09
2019-03-15T17:45:18.471Z,9.14
2019-03-15T17:47:47.309Z,9.11
2019-03-15T17:50:23.786Z,9.20
2019-03-15T17:52:52.365Z,9.17
2019-03-15T17:55:20.854Z,9.14
2019-03-15T17:57:49.478Z,9.12
2019-03-15T18:00:42.088Z,9.11
2019-03-15T18:03:20.730Z,9.07
2019-03-15T18:05:41.231Z,9.11
2019-03-15T18:08:09.794Z,9.09
2019-03-15T18:10:38.594Z,9.14
2019-03-15T18:13:07.149Z,9.14
2019-03-15T18:15:35.610Z,9.13
2019-03-15T18:18:04.481Z,9.13
2019-03-15T18:20:33.001Z,9.19
2019-03-15T18:23:01.570Z,9.14
2019-03-15T18:25:30.502Z,9.13
2019-03-15T18:28:01.934Z,9.17
2019-03-15T18:30:30.492Z,9.12
2019-03-15T18:32:59.102Z,9.07
2019-03-15T18:35:33.666Z,9.05
2019-03-15T18:37:58.251Z,9.02
2019-03-15T18:40:26.919Z,9.05
2019-03-15T18:42:55.876Z,8.96
2019-03-15T18:45:24.582Z,8.90
2019-03-15T18:47:53.682Z,8.91
2019-03-15T18:50:27.255Z,8.92
2019-03-15T18:52:55.754Z,8.94
2019-03-15T18:55:24.428Z,8.94
2019-03-15T18:57:53.078Z,9.04
2019-03-15T19:00:25.483Z,8.98
2019-03-15T19:02:54.064Z,9.09
2019-03-15T19:05:22.616Z,9.01
2019-03-15T19:07:53.053Z,8.99
2019-03-15T19:10:21.973Z,9.05
2019-03-15T19:12:51.096Z,9.10
2019-03-15T19:15:21.526Z,9.10
2019-03-15T19:17:50.212Z,9.11
2019-03-15T19:20:19.151Z,9.12
2019-03-15T19:22:48.236Z,9.06
2019-03-15T19:25:16.952Z,9.06
2019-03-15T19:27:46.752Z,9.03
2019-03-15T19:30:20.173Z,9.05
2019-03-15T19:32:48.779Z,9.06
2019-03-15T19:35:17.428Z,8.98
2019-03-15T19:37:46.063Z,8.88
2019-03-15T19:40:19.500Z,8.89
2019-03-15T19:42:49.946Z,8.86
2019-03-15T19:45:20.603Z,8.77
2019-03-15T19:47:50.171Z,8.81
2019-03-15T19:50:21.345Z,8.79
2019-03-15T19:52:51.884Z,8.73
2019-03-15T19:55:21.089Z,8.65
2019-03-15T19:58:00.030Z,8.59
2019-03-15T20:00:32.951Z,8.61
2019-03-15T20:03:02.008Z,8.56
2019-03-15T20:05:32.067Z,8.53
2019-03-15T20:08:00.930Z,8.42
2019-03-15T20:10:43.794Z,8.49
2019-03-15T20:13:12.695Z,8.50
2019-03-15T20:15:41.685Z,8.52
2019-03-15T20:18:11.889Z,8.47
2019-03-15T20:20:43.882Z,8.39
2019-03-15T20:23:14.561Z,8.37
2019-03-15T20:25:46.751Z,8.31
2019-03-15T20:28:16.030Z,8.35
2019-03-15T20:30:51.867Z,8.40
2019-03-15T20:33:17.133Z,8.37
2019-03-15T20:35:45.925Z,8.35
2019-03-15T20:38:14.879Z,8.22
2019-03-15T20:40:46.556Z,8.25
2019-03-15T20:43:15.609Z,8.11
2019-03-15T20:45:44.560Z,8.28
2019-03-15T20:48:13.359Z,8.14
2019-03-15T20:50:47.025Z,8.12
2019-03-15T20:53:13.156Z,8.09
2019-03-15T20:55:42.451Z,8.05
2019-03-15T20:58:11.165Z,8.13
2019-03-15T21:00:40.696Z,8.14
2019-03-15T21:03:09.385Z,8.09
2019-03-15T21:05:39.834Z,8.15
2019-03-15T21:08:13.923Z,8.02
2019-03-15T21:10:46.178Z,8.10
2019-03-15T21:13:15.254Z,8.14
2019-03-15T21:15:45.181Z,8.10
2019-03-15T21:18:14.102Z,8.02
2019-03-15T21:20:43.370Z,8.02
2019-03-15T21:23:12.369Z,8.08
2019-03-15T21:25:41.230Z,8.08
2019-03-15T21:28:14.800Z,8.00
2019-03-15T21:30:48.736Z,8.02
2019-03-15T21:33:14.910Z,7.95
2019-03-15T21:35:43.830Z,7.86
2019-03-15T21:38:13.068Z,7.89
2019-03-15T21:40:43.476Z,7.84
2019-03-15T21:43:12.619Z,7.91
2019-03-15T21:45:50.924Z,7.89
2019-03-15T21:48:20.300Z,7.84
2019-03-15T21:50:50.517Z,7.86
2019-03-15T21:53:19.509Z,7.77
2019-03-15T21:55:52.272Z,7.76
2019-03-15T21:58:21.690Z,7.65
2019-03-15T22:01:01.795Z,7.60
2019-03-15T22:03:21.520Z,7.64
2019-03-15T22:05:52.544Z,7.58
2019-03-15T22:08:23.027Z,7.59
2019-03-15T22:10:51.939Z,7.61
2019-03-15T22:13:20.714Z,7.57
2019-03-15T22:15:49.273Z,7.49
2019-03-15T22:18:18.019Z,7.58
2019-03-15T22:20:46.856Z,7.64
2019-03-15T22:23:15.727Z,7.56
2019-03-15T22:25:47.482Z,7.57
2019-03-15T22:28:16.307Z,7.56
2019-03-15T22:30:45.521Z,7.53
2019-03-15T22:33:14.098Z,7.51
2019-03-15T22:35:43.028Z,7.56
2019-03-15T22:38:25.289Z,7.51
2019-03-15T22:40:42.240Z,7.46
2019-03-15T22:43:14.085Z,7.60
2019-03-15T22:45:42.683Z,7.62
2019-03-15T22:48:11.378Z,7.56
2019-03-15T22:50:40.094Z,7.53
2019-03-15T22:53:08.722Z,7.52
2019-03-15T22:55:37.256Z,7.51
2019-03-15T22:58:06.032Z,7.45
2019-03-15T23:00:36.505Z,7.45
2019-03-15T23:03:06.873Z,7.42
2019-03-15T23:05:37.173Z,7.50
2019-03-15T23:08:06.250Z,7.44
2019-03-15T23:10:35.358Z,7.49
2019-03-15T23:13:04.047Z,7.48
2019-03-15T23:15:33.227Z,7.47
2019-03-15T23:18:02.664Z,7.51
2019-03-15T23:20:31.331Z,7.49
2019-03-15T23:23:00.944Z,7.53
2019-03-15T23:25:30.087Z,7.46
2019-03-15T23:27:58.784Z,7.37
2019-03-15T23:30:27.607Z,7.29
2019-03-15T23:32:56.203Z,7.32
2019-03-15T23:35:25.146Z,7.40
2019-03-15T23:37:54.551Z,7.35
2019-03-15T23:40:23.316Z,7.41
2019-03-15T23:42:52.260Z,7.43
2019-03-15T23:45:21.981Z,7.36
2019-03-15T23:47:51.363Z,7.41
2019-03-15T23:50:22.045Z,7.32
2019-03-15T23:52:51.048Z,7.39
2019-03-15T23:55:19.734Z,7.34
2019-03-15T23:57:51.913Z,7.30
